sensor_id;sensor_type;location;lat;lon;timestamp;temperature;humidity
42715;DHT22;28351;51.480;5.706;2023-12-22T15:51:28;10.40;99.90
42715;DHT22;28351;51.480;5.706;2023-12-22T15:57:22;10.40;99.90
42715;DHT22;28351;51.480;5.706;2023-12-22T16:02:42;10.40;99.90
42715;DHT22;28351;51.480;5.706;2023-12-22T16:05:57;10.40;99.90
42715;DHT22;28351;51.480;5.706;2023-12-22T16:08:31;10.50;99.90
42715;DHT22;28351;51.480;5.706;2023-12-22T16:11:33;10.50;99.90
42715;DHT22;28351;51.480;5.706;2023-12-22T16:14:26;10.40;99.90
42715;DHT22;28351;51.480;5.706;2023-12-22T16:17:05;10.40;99.90
42715;DHT22;28351;51.480;5.706;2023-12-22T16:19:38;10.60;99.90
42715;DHT22;28351;51.480;5.706;2023-12-22T16:22:06;10.50;99.90
42715;DHT22;28351;51.480;5.706;2023-12-22T16:24:46;10.50;99.90
42715;DHT22;28351;51.480;5.706;2023-12-22T16:27:22;10.50;99.90
42715;DHT22;28351;51.480;5.706;2023-12-22T16:36:34;10.60;99.90
42715;DHT22;28351;51.480;5.706;2023-12-22T16:39:05;10.60;99.90
42715;DHT22;28351;51.480;5.706;2023-12-22T16:41:44;10.60;99.90
42715;DHT22;28351;51.480;5.706;2023-12-22T16:44:38;10.60;99.90
42715;DHT22;28351;51.480;5.706;2023-12-22T16:47:44;10.60;99.90
42715;DHT22;28351;51.480;5.706;2023-12-22T16:50:15;10.60;99.90
42715;DHT22;28351;51.480;5.706;2023-12-22T16:52:45;10.70;99.90
42715;DHT22;28351;51.480;5.706;2023-12-22T16:55:37;10.60;99.90
42715;DHT22;28351;51.480;5.706;2023-12-22T16:58:04;10.70;99.90
42715;DHT22;28351;51.480;5.706;2023-12-22T17:00:33;10.60;99.90
42715;DHT22;28351;51.480;5.706;2023-12-22T17:03:00;10.60;99.90
42715;DHT22;28351;51.480;5.706;2023-12-22T17:05:27;10.60;99.90
42715;DHT22;28351;51.480;5.706;2023-12-22T17:07:52;10.70;99.90
42715;DHT22;28351;51.480;5.706;2023-12-22T17:10:20;10.60;99.90
42715;DHT22;28351;51.480;5.706;2023-12-22T17:12:45;10.70;99.90
42715;DHT22;28351;51.480;5.706;2023-12-22T17:15:13;10.70;99.90
42715;DHT22;28351;51.480;5.706;2023-12-22T17:17:50;10.70;99.90
42715;DHT22;28351;51.480;5.706;2023-12-22T17:20:38;10.70;99.90
42715;DHT22;28351;51.480;5.706;2023-12-22T17:23:13;10.70;99.90
42715;DHT22;28351;51.480;5.706;2023-12-22T17:25:40;10.70;99.90
42715;DHT22;28351;51.480;5.706;2023-12-22T17:28:23;10.70;99.90
42715;DHT22;28351;51.480;5.706;2023-12-22T17:30:49;10.70;99.90
42715;DHT22;28351;51.480;5.706;2023-12-22T17:33:16;10.70;99.90
42715;DHT22;28351;51.480;5.706;2023-12-22T17:35:41;10.70;99.90
42715;DHT22;28351;51.480;5.706;2023-12-22T17:38:17;10.70;99.90
42715;DHT22;28351;51.480;5.706;2023-12-22T17:40:43;10.70;99.90
42715;DHT22;28351;51.480;5.706;2023-12-22T17:43:08;10.70;99.90
42715;DHT22;28351;51.480;5.706;2023-12-22T17:45:34;10.70;99.90
42715;DHT22;28351;51.480;5.706;2023-12-22T17:48:06;10.60;99.90
42715;DHT22;28351;51.480;5.706;2023-12-22T17:50:33;10.60;99.90
42715;DHT22;28351;51.480;5.706;2023-12-22T17:52:58;10.60;99.90
42715;DHT22;28351;51.480;5.706;2023-12-22T17:55:26;10.50;99.90
42715;DHT22;28351;51.480;5.706;2023-12-22T17:57:54;10.50;99.90
42715;DHT22;28351;51.480;5.706;2023-12-22T18:00:24;10.60;99.90
42715;DHT22;28351;51.480;5.706;2023-12-22T18:02:54;10.50;99.90
42715;DHT22;28351;51.480;5.706;2023-12-22T18:05:34;10.70;99.90
42715;DHT22;28351;51.480;5.706;2023-12-22T18:08:03;10.70;99.90
42715;DHT22;28351;51.480;5.706;2023-12-22T18:10:32;10.80;99.90
42715;DHT22;28351;51.480;5.706;2023-12-22T18:12:57;10.80;99.90
42715;DHT22;28351;51.480;5.706;2023-12-22T18:15:26;10.80;99.90
42715;DHT22;28351;51.480;5.706;2023-12-22T18:17:51;10.80;99.90
42715;DHT22;28351;51.480;5.706;2023-12-22T18:20:28;10.80;99.90
42715;DHT22;28351;51.480;5.706;2023-12-22T18:23:00;10.80;99.90
42715;DHT22;28351;51.480;5.706;2023-12-22T18:25:28;10.70;99.90
42715;DHT22;28351;51.480;5.706;2023-12-22T18:28:06;10.70;99.90
42715;DHT22;28351;51.480;5.706;2023-12-22T18:30:46;10.70;99.90
42715;DHT22;28351;51.480;5.706;2023-12-22T18:33:24;10.50;99.90
42715;DHT22;28351;51.480;5.706;2023-12-22T18:35:52;10.10;99.90
42715;DHT22;28351;51.480;5.706;2023-12-22T18:38:28;10.00;99.90
42715;DHT22;28351;51.480;5.706;2023-12-22T18:40:54;10.00;99.90
42715;DHT22;28351;51.480;5.706;2023-12-22T18:43:20;10.00;99.90
42715;DHT22;28351;51.480;5.706;2023-12-22T18:46:05;10.20;99.90
42715;DHT22;28351;51.480;5.706;2023-12-22T18:48:34;10.10;99.90
42715;DHT22;28351;51.480;5.706;2023-12-22T18:51:12;10.10;99.90
42715;DHT22;28351;51.480;5.706;2023-12-22T18:53:43;10.10;99.90
42715;DHT22;28351;51.480;5.706;2023-12-22T18:58:44;10.20;99.90
42715;DHT22;28351;51.480;5.706;2023-12-22T19:01:10;10.30;99.90
42715;DHT22;28351;51.480;5.706;2023-12-22T19:03:45;10.20;99.90
42715;DHT22;28351;51.480;5.706;2023-12-22T19:06:13;10.30;99.90
42715;DHT22;28351;51.480;5.706;2023-12-22T19:08:40;10.40;99.90
42715;DHT22;28351;51.480;5.706;2023-12-22T19:11:14;10.40;99.90
42715;DHT22;28351;51.480;5.706;2023-12-22T19:13:40;10.40;99.90
42715;DHT22;28351;51.480;5.706;2023-12-22T19:16:06;10.50;99.90
42715;DHT22;28351;51.480;5.706;2023-12-22T19:18:39;10.50;99.90
42715;DHT22;28351;51.480;5.706;2023-12-22T19:21:06;10.50;99.90
42715;DHT22;28351;51.480;5.706;2023-12-22T19:23:37;10.50;99.90
42715;DHT22;28351;51.480;5.706;2023-12-22T19:26:06;10.40;99.90
42715;DHT22;28351;51.480;5.706;2023-12-22T19:28:42;10.40;99.90
42715;DHT22;28351;51.480;5.706;2023-12-22T19:31:08;10.30;99.90
42715;DHT22;28351;51.480;5.706;2023-12-22T19:33:35;10.30;99.90
42715;DHT22;28351;51.480;5.706;2023-12-22T19:36:01;10.30;99.90
42715;DHT22;28351;51.480;5.706;2023-12-22T19:38:30;10.30;99.90
42715;DHT22;28351;51.480;5.706;2023-12-22T19:40:58;10.30;99.90
42715;DHT22;28351;51.480;5.706;2023-12-22T19:43:26;10.20;99.90
42715;DHT22;28351;51.480;5.706;2023-12-22T19:45:53;10.10;99.90
42715;DHT22;28351;51.480;5.706;2023-12-22T19:48:20;10.00;99.90
42715;DHT22;28351;51.480;5.706;2023-12-22T19:50:47;9.80;99.90
42715;DHT22;28351;51.480;5.706;2023-12-22T19:53:16;9.70;99.90
42715;DHT22;28351;51.480;5.706;2023-12-22T19:55:42;9.60;99.90
42715;DHT22;28351;51.480;5.706;2023-12-22T19:58:10;9.60;99.90
42715;DHT22;28351;51.480;5.706;2023-12-22T20:00:36;9.50;99.90
42715;DHT22;28351;51.480;5.706;2023-12-22T20:03:02;9.50;99.90
42715;DHT22;28351;51.480;5.706;2023-12-22T20:05:28;9.60;99.90
42715;DHT22;28351;51.480;5.706;2023-12-22T20:08:01;9.60;99.90
42715;DHT22;28351;51.480;5.706;2023-12-22T20:10:38;9.60;99.90
42715;DHT22;28351;51.480;5.706;2023-12-22T20:13:08;9.50;99.90
42715;DHT22;28351;51.480;5.706;2023-12-22T20:15:47;9.60;99.90
42715;DHT22;28351;51.480;5.706;2023-12-22T20:18:13;9.60;99.90
42715;DHT22;28351;51.480;5.706;2023-12-22T20:20:50;9.70;99.90
42715;DHT22;28351;51.480;5.706;2023-12-22T20:23:46;9.50;99.90
42715;DHT22;28351;51.480;5.706;2023-12-22T20:26:30;9.30;99.90
42715;DHT22;28351;51.480;5.706;2023-12-22T20:29:00;9.30;99.90
42715;DHT22;28351;51.480;5.706;2023-12-22T20:31:33;9.20;99.90
42715;DHT22;28351;51.480;5.706;2023-12-22T20:33:59;9.20;99.90
42715;DHT22;28351;51.480;5.706;2023-12-22T20:36:27;9.20;99.90
42715;DHT22;28351;51.480;5.706;2023-12-22T20:38:56;9.20;99.90
42715;DHT22;28351;51.480;5.706;2023-12-22T20:41:24;9.30;99.90
42715;DHT22;28351;51.480;5.706;2023-12-22T20:46:56;9.20;99.90
42715;DHT22;28351;51.480;5.706;2023-12-22T20:50:01;9.10;99.90
42715;DHT22;28351;51.480;5.706;2023-12-22T20:57:56;9.20;99.90
42715;DHT22;28351;51.480;5.706;2023-12-22T21:03:39;9.20;99.90
